Time;durP1;ratioP1;P1;durP2;ratioP2;P2;SDS_P1;SDS_P2;PMS_P1;PMS_P2;Temp;Humidity;BMP_temperature;BMP_pressure;BME280_temperature;BME280_humidity;BME280_pressure;Samples;Min_cycle;Max_cycle;Signal;HPM_P1;HPM_P2
2022/12/05 00:01:16;;;;;;;24.05;16.25;;;3.70;99.90;;;;;;5989006;23;20220;-76
2022/12/05 00:03:46;;;;;;;22.48;15.05;;;4.00;99.90;;;;;;5994275;23;20255;-76
2022/12/05 00:06:13;;;;;;;22.20;14.90;;;3.70;99.90;;;;;;6002682;23;20611;-76
2022/12/05 00:08:40;;;;;;;19.92;14.40;;;3.60;99.90;;;;;;6001345;23;20381;-76
2022/12/05 00:11:12;;;;;;;19.42;14.43;;;3.50;99.90;;;;;;6003056;23;20196;-76
2022/12/05 00:13:41;;;;;;;21.55;14.23;;;3.40;99.90;;;;;;5998327;23;20196;-76
2022/12/05 00:16:10;;;;;;;18.50;13.82;;;3.40;99.90;;;;;;5999926;23;21011;-76
2022/12/05 00:18:37;;;;;;;17.90;12.95;;;3.40;99.90;;;;;;6012892;23;20225;-76
2022/12/05 00:21:07;;;;;;;15.30;12.50;;;3.40;99.90;;;;;;6001502;23;20218;-76
2022/12/05 00:23:35;;;;;;;17.35;13.88;;;3.30;99.90;;;;;;6004734;23;20252;-77
2022/12/05 00:26:03;;;;;;;15.90;13.15;;;3.30;99.90;;;;;;6002044;23;20286;-77
2022/12/05 00:28:31;;;;;;;15.65;12.13;;;3.30;99.90;;;;;;5998410;23;20282;-76
2022/12/05 00:31:02;;;;;;;17.67;13.25;;;3.30;99.90;;;;;;5977429;23;20205;-76
2022/12/05 00:33:29;;;;;;;16.25;11.75;;;3.30;99.90;;;;;;6000175;23;20244;-76
2022/12/05 00:36:01;;;;;;;16.77;12.50;;;3.40;99.90;;;;;;6000883;23;20674;-76
2022/12/05 00:38:30;;;;;;;15.35;11.88;;;3.40;99.90;;;;;;6001799;23;20232;-76
2022/12/05 00:41:01;;;;;;;18.05;14.18;;;3.40;99.90;;;;;;6002893;23;20658;-76
2022/12/05 00:43:29;;;;;;;17.40;12.68;;;3.40;99.90;;;;;;6002511;23;20227;-77
2022/12/05 00:45:56;;;;;;;18.42;13.60;;;3.40;99.90;;;;;;6002827;23;20198;-76
2022/12/05 00:48:23;;;;;;;17.52;12.98;;;3.40;99.90;;;;;;6001840;23;20226;-76
2022/12/05 00:50:50;;;;;;;18.52;13.20;;;3.40;99.90;;;;;;6003973;23;20300;-76
2022/12/05 00:53:17;;;;;;;17.27;13.15;;;3.40;99.90;;;;;;6003049;23;20196;-76
2022/12/05 00:55:46;;;;;;;15.77;12.68;;;3.40;99.90;;;;;;5993512;23;20355;-76
2022/12/05 00:58:14;;;;;;;18.65;13.27;;;3.40;99.90;;;;;;6002367;23;20607;-76
2022/12/05 01:00:41;;;;;;;18.95;12.23;;;3.40;99.90;;;;;;6003872;23;20214;-77
2022/12/05 01:03:08;;;;;;;18.60;12.40;;;3.40;99.90;;;;;;5982617;23;20605;-77
2022/12/05 01:05:35;;;;;;;17.45;12.98;;;3.30;99.90;;;;;;5997045;23;20702;-77
2022/12/05 01:08:03;;;;;;;21.27;14.50;;;3.30;99.90;;;;;;6002963;23;20283;-76
2022/12/05 01:10:30;;;;;;;23.75;14.75;;;3.30;99.90;;;;;;6002563;23;20200;-76
2022/12/05 01:12:59;;;;;;;20.45;13.68;;;3.30;99.90;;;;;;5994752;23;20232;-76
2022/12/05 01:15:26;;;;;;;22.27;14.60;;;3.30;99.90;;;;;;6009313;23;20201;-76
2022/12/05 01:17:53;;;;;;;22.55;14.98;;;3.30;99.90;;;;;;6006630;23;20353;-76
2022/12/05 01:20:20;;;;;;;22.05;15.18;;;3.30;99.90;;;;;;6009700;23;20281;-76
2022/12/05 01:22:47;;;;;;;22.70;15.13;;;3.30;99.90;;;;;;6002664;23;20280;-76
2022/12/05 01:25:15;;;;;;;21.58;14.00;;;3.30;99.90;;;;;;6002365;23;20205;-76
2022/12/05 01:27:42;;;;;;;19.98;13.20;;;3.30;99.90;;;;;;5996001;23;20225;-76
2022/12/05 01:30:12;;;;;;;22.02;15.45;;;3.30;99.90;;;;;;6001525;23;20227;-76
2022/12/05 01:32:39;;;;;;;20.90;14.30;;;3.30;99.90;;;;;;6011874;23;20198;-76
2022/12/05 01:35:07;;;;;;;21.90;15.68;;;3.30;99.90;;;;;;6002080;23;20233;-76
2022/12/05 01:37:34;;;;;;;20.00;14.52;;;3.30;99.90;;;;;;6001838;23;20279;-76
2022/12/05 01:40:03;;;;;;;20.40;15.25;;;3.30;99.90;;;;;;6001828;23;20640;-76
2022/12/05 01:42:30;;;;;;;18.40;14.20;;;3.30;99.90;;;;;;5998349;23;20223;-76
2022/12/05 01:45:02;;;;;;;20.20;13.95;;;3.30;99.90;;;;;;6011283;23;20551;-76
2022/12/05 01:47:39;;;;;;;22.48;15.77;;;3.30;99.90;;;;;;6001088;23;20203;-76
2022/12/05 01:50:08;;;;;;;17.45;12.82;;;3.40;99.90;;;;;;6003658;23;20292;-76
2022/12/05 01:52:36;;;;;;;19.67;14.70;;;3.40;99.90;;;;;;5995322;23;20199;-76
2022/12/05 01:55:08;;;;;;;18.88;14.20;;;3.40;99.90;;;;;;6000235;23;20224;-76
2022/12/05 01:57:37;;;;;;;17.60;13.27;;;3.30;99.90;;;;;;5998348;23;20197;-76
2022/12/05 02:00:09;;;;;;;21.40;14.48;;;3.30;99.90;;;;;;5999430;23;20204;-76
2022/12/05 02:02:40;;;;;;;18.23;13.68;;;3.30;99.90;;;;;;6001671;23;20226;-76
2022/12/05 02:05:11;;;;;;;19.42;13.15;;;3.30;99.90;;;;;;5999623;23;20308;-76
2022/12/05 02:07:42;;;;;;;21.10;13.70;;;3.30;99.90;;;;;;5996772;23;20554;-76
2022/12/05 02:10:10;;;;;;;19.85;13.82;;;3.20;99.90;;;;;;5974367;23;20710;-77
2022/12/05 02:12:38;;;;;;;20.15;14.63;;;3.20;99.90;;;;;;6000810;23;20202;-76
2022/12/05 02:15:25;;;;;;;19.08;13.10;;;3.20;99.90;;;;;;6000599;23;20265;-76
2022/12/05 02:18:04;;;;;;;16.60;12.23;;;3.20;99.90;;;;;;6005369;23;20204;-76
2022/12/05 02:20:44;;;;;;;22.45;13.93;;;3.20;99.90;;;;;;6000671;23;20207;-76
2022/12/05 02:23:25;;;;;;;21.48;14.45;;;3.20;99.90;;;;;;6001459;23;20284;-76
2022/12/05 02:26:15;;;;;;;18.43;12.97;;;3.20;99.90;;;;;;5938867;23;1405398;-76
2022/12/05 02:29:25;;;;;;;19.30;13.43;;;3.20;99.90;;;;;;5989879;23;20755;-76
2022/12/05 02:32:02;;;;;;;18.58;12.93;;;3.20;99.90;;;;;;5893485;24;20210;-76
2022/12/05 02:34:35;;;;;;;18.85;13.35;;;3.30;99.90;;;;;;5977919;23;20276;-76
2022/12/05 02:37:09;;;;;;;17.40;13.23;;;3.20;99.90;;;;;;6004127;23;20657;-76
2022/12/05 02:39:45;;;;;;;16.15;12.30;;;3.20;99.90;;;;;;6002495;23;20291;-76
2022/12/05 02:42:15;;;;;;;19.33;13.35;;;3.20;99.90;;;;;;5999019;23;20278;-76
2022/12/05 02:44:47;;;;;;;19.25;13.48;;;3.30;99.90;;;;;;6002185;23;20218;-76
2022/12/05 02:47:20;;;;;;;18.30;12.88;;;3.30;99.90;;;;;;5975947;23;20375;-76
2022/12/05 02:49:50;;;;;;;15.40;12.43;;;3.20;99.90;;;;;;5995829;23;20199;-76
2022/12/05 02:52:18;;;;;;;17.90;12.80;;;3.20;99.90;;;;;;6002516;23;20221;-76
2022/12/05 02:54:49;;;;;;;17.33;12.93;;;3.20;99.90;;;;;;6001683;23;20289;-76
2022/12/05 02:57:17;;;;;;;16.70;11.85;;;3.20;99.90;;;;;;6003278;23;20193;-76
2022/12/05 02:59:45;;;;;;;18.52;12.52;;;3.20;99.90;;;;;;6001353;23;20277;-77
2022/12/05 03:02:26;;;;;;;16.73;12.25;;;3.20;99.90;;;;;;5998952;23;20216;-76
2022/12/05 03:04:56;;;;;;;16.08;12.20;;;3.30;99.90;;;;;;6002103;23;20282;-76
2022/12/05 03:07:25;;;;;;;17.60;12.80;;;3.30;99.90;;;;;;5981842;23;20201;-76
2022/12/05 03:09:57;;;;;;;19.05;12.45;;;3.30;99.90;;;;;;5977463;23;20202;-76
2022/12/05 03:12:28;;;;;;;16.85;11.95;;;3.30;99.90;;;;;;5995702;23;20230;-76
2022/12/05 03:15:08;;;;;;;14.38;10.63;;;3.30;99.90;;;;;;5994566;23;20630;-76
2022/12/05 03:17:44;;;;;;;17.67;11.13;;;3.40;99.90;;;;;;5993044;23;20283;-76
2022/12/05 03:20:17;;;;;;;15.52;10.85;;;3.30;99.90;;;;;;6005347;23;20224;-76
2022/12/05 03:22:52;;;;;;;16.23;11.48;;;3.30;99.90;;;;;;6013732;23;20281;-76
2022/12/05 03:25:21;;;;;;;13.68;9.90;;;3.40;99.90;;;;;;5976539;23;20731;-76
2022/12/05 03:27:53;;;;;;;15.20;10.77;;;3.40;99.90;;;;;;6002230;23;20194;-76
2022/12/05 03:30:22;;;;;;;16.20;11.75;;;3.40;99.90;;;;;;5999987;23;20265;-76
2022/12/05 03:32:58;;;;;;;15.20;10.90;;;3.40;99.90;;;;;;6010115;23;20202;-76
2022/12/05 03:35:32;;;;;;;15.05;11.30;;;3.40;99.90;;;;;;5976637;23;20273;-76
2022/12/05 03:38:03;;;;;;;15.98;11.85;;;3.50;99.90;;;;;;6002756;23;20193;-77
2022/12/05 03:40:36;;;;;;;13.40;10.82;;;3.50;99.90;;;;;;5999319;23;20283;-77
2022/12/05 03:43:11;;;;;;;14.88;11.18;;;3.60;99.90;;;;;;6012481;23;20239;-77
2022/12/05 03:45:45;;;;;;;12.95;10.35;;;3.60;99.90;;;;;;6001125;23;20570;-77
2022/12/05 03:48:19;;;;;;;14.73;11.00;;;3.60;99.90;;;;;;6002611;23;20193;-77
2022/12/05 03:50:49;;;;;;;13.25;10.05;;;3.60;99.90;;;;;;5980374;23;20209;-76
2022/12/05 03:53:20;;;;;;;13.13;10.43;;;3.60;99.90;;;;;;5984795;23;20278;-76
2022/12/05 03:55:54;;;;;;;15.00;11.02;;;3.60;99.90;;;;;;5994436;23;20296;-76
2022/12/05 03:58:27;;;;;;;14.15;10.82;;;3.60;99.90;;;;;;6002738;23;20201;-77
2022/12/05 04:00:57;;;;;;;14.30;11.00;;;3.60;99.90;;;;;;6001334;23;20281;-76
2022/12/05 04:03:38;;;;;;;13.70;10.23;;;3.70;99.90;;;;;;6005751;23;20276;-77
2022/12/05 04:06:11;;;;;;;12.93;9.70;;;3.70;99.90;;;;;;6006303;23;20221;-77
2022/12/05 04:08:42;;;;;;;13.65;10.73;;;3.70;99.90;;;;;;6011995;23;20228;-77
2022/12/05 04:11:16;;;;;;;14.85;11.65;;;3.70;99.90;;;;;;6009525;23;20197;-76
2022/12/05 04:13:50;;;;;;;12.43;10.25;;;3.70;99.90;;;;;;5978592;23;20668;-76
2022/12/05 04:19:11;;;;;;;12.20;10.15;;;3.90;99.90;;;;;;5994213;23;20649;-76
2022/12/05 04:21:44;;;;;;;14.77;10.45;;;3.90;99.90;;;;;;6002966;23;20194;-76
2022/12/05 04:27:09;;;;;;;14.43;11.20;;;4.00;99.90;;;;;;6003922;23;20224;-76
2022/12/05 04:29:44;;;;;;;14.70;11.32;;;4.00;99.90;;;;;;6000848;23;20349;-76
2022/12/05 04:32:14;;;;;;;14.23;10.75;;;4.00;99.90;;;;;;6001315;23;20229;-76
2022/12/05 04:34:50;;;;;;;15.68;12.32;;;4.10;99.90;;;;;;6002490;23;20618;-76
2022/12/05 04:37:25;;;;;;;13.60;11.50;;;4.20;99.90;;;;;;6003190;23;20221;-76
2022/12/05 04:39:57;;;;;;;12.45;11.15;;;4.20;99.90;;;;;;6006809;23;20277;-76
2022/12/05 04:42:28;;;;;;;14.70;11.88;;;4.20;99.90;;;;;;6003055;23;20269;-76
2022/12/05 04:45:02;;;;;;;15.07;10.93;;;4.30;99.90;;;;;;6003554;23;20301;-77
2022/12/05 04:47:35;;;;;;;13.80;10.43;;;4.30;99.90;;;;;;6002829;23;20648;-76
2022/12/05 04:50:07;;;;;;;14.70;10.55;;;4.30;99.90;;;;;;5986409;23;20280;-76
2022/12/05 04:52:36;;;;;;;14.18;10.30;;;4.20;99.90;;;;;;5999341;23;20293;-76
2022/12/05 04:55:08;;;;;;;13.82;10.70;;;4.20;99.90;;;;;;6008190;23;20190;-76
2022/12/05 04:57:42;;;;;;;16.55;11.45;;;4.20;99.90;;;;;;6000383;23;20194;-76
2022/12/05 05:00:10;;;;;;;15.52;11.18;;;4.20;99.90;;;;;;5993070;23;20304;-76
2022/12/05 05:02:43;;;;;;;12.88;11.00;;;4.20;99.90;;;;;;6002109;23;20290;-77
2022/12/05 05:05:13;;;;;;;14.88;10.32;;;4.10;99.90;;;;;;5999624;23;20321;-77
2022/12/05 05:07:45;;;;;;;15.48;11.82;;;4.20;99.90;;;;;;5996155;23;20696;-77
2022/12/05 05:10:16;;;;;;;14.77;10.88;;;4.20;99.90;;;;;;5995431;23;20589;-77
2022/12/05 05:12:43;;;;;;;16.73;10.80;;;4.20;99.90;;;;;;5996835;23;20293;-77
2022/12/05 05:15:10;;;;;;;16.00;11.80;;;4.20;99.90;;;;;;6013259;23;20288;-77
2022/12/05 05:17:38;;;;;;;14.45;10.98;;;4.20;99.90;;;;;;5983750;23;20332;-77
2022/12/05 05:22:51;;;;;;;14.90;11.30;;;4.10;99.90;;;;;;5978396;23;20208;-77
2022/12/05 05:25:18;;;;;;;14.63;10.93;;;4.20;99.90;;;;;;6011588;23;20845;-77
2022/12/05 05:27:50;;;;;;;14.70;10.95;;;4.10;99.90;;;;;;5975157;23;20209;-77
2022/12/05 05:30:18;;;;;;;15.88;11.40;;;4.10;99.90;;;;;;6002766;23;20214;-77
2022/12/05 05:32:46;;;;;;;19.05;12.18;;;4.00;99.90;;;;;;5999589;23;20198;-79
2022/12/05 05:35:13;;;;;;;13.15;10.18;;;4.00;99.90;;;;;;5992809;23;20288;-77
2022/12/05 05:37:42;;;;;;;14.80;11.70;;;4.10;99.90;;;;;;5992132;23;20194;-78
2022/12/05 05:40:14;;;;;;;14.43;11.25;;;4.10;99.90;;;;;;5982977;23;20628;-77
2022/12/05 05:42:45;;;;;;;17.10;11.25;;;4.10;99.90;;;;;;5997311;23;20190;-77
2022/12/05 05:45:13;;;;;;;13.25;10.50;;;4.00;99.90;;;;;;5992366;23;20695;-77
2022/12/05 05:47:41;;;;;;;16.05;12.07;;;3.80;99.90;;;;;;5987422;23;20193;-76
2022/12/05 05:50:09;;;;;;;18.00;12.95;;;3.80;99.90;;;;;;5997043;23;20236;-78
2022/12/05 05:52:37;;;;;;;15.50;11.25;;;3.80;99.90;;;;;;5971089;23;20212;-77
2022/12/05 05:55:06;;;;;;;14.48;11.00;;;3.80;99.90;;;;;;5992062;23;20190;-78
2022/12/05 05:57:35;;;;;;;17.35;12.30;;;3.70;99.90;;;;;;5992558;23;20248;-78
2022/12/05 06:00:04;;;;;;;16.90;12.93;;;3.60;99.90;;;;;;5973098;23;20285;-78
2022/12/05 06:02:33;;;;;;;18.67;12.20;;;3.60;99.90;;;;;;6000129;23;20188;-78
2022/12/05 06:05:00;;;;;;;17.25;12.30;;;3.60;99.90;;;;;;5997939;23;20777;-78
2022/12/05 06:07:28;;;;;;;18.65;13.85;;;3.70;99.90;;;;;;5990127;23;20326;-79
2022/12/05 06:09:55;;;;;;;19.75;13.70;;;3.70;99.90;;;;;;5964534;23;20660;-80
2022/12/05 06:12:22;;;;;;;19.98;13.05;;;3.80;99.90;;;;;;5993956;23;20197;-79
2022/12/05 06:14:51;;;;;;;18.48;13.85;;;3.80;99.90;;;;;;5998725;23;20268;-79
2022/12/05 06:17:18;;;;;;;17.70;12.57;;;3.80;99.90;;;;;;5988928;23;20281;-77
2022/12/05 06:19:47;;;;;;;15.70;12.13;;;3.90;99.90;;;;;;5997016;23;20198;-78
2022/12/05 06:22:14;;;;;;;16.88;12.38;;;4.00;99.90;;;;;;5998094;23;20264;-78
2022/12/05 06:24:43;;;;;;;17.65;13.93;;;4.00;99.90;;;;;;6001069;23;20224;-78
2022/12/05 06:27:10;;;;;;;15.25;12.10;;;4.10;99.90;;;;;;5987805;23;20198;-79
2022/12/05 06:29:37;;;;;;;14.85;12.07;;;4.10;99.90;;;;;;6012441;23;20210;-78
2022/12/05 06:32:07;;;;;;;17.52;11.85;;;4.10;99.90;;;;;;5999385;23;20694;-78
2022/12/05 06:34:35;;;;;;;15.70;12.73;;;4.10;99.90;;;;;;5974359;23;20186;-78
2022/12/05 06:37:02;;;;;;;15.88;11.30;;;4.00;99.90;;;;;;5992214;23;20198;-78
2022/12/05 06:39:30;;;;;;;19.15;13.02;;;4.10;99.90;;;;;;5991807;23;20198;-77
2022/12/05 06:41:57;;;;;;;18.65;13.13;;;4.20;99.90;;;;;;5993654;23;20280;-77
2022/12/05 06:44:25;;;;;;;16.65;12.18;;;4.10;99.90;;;;;;5977208;23;20200;-77
2022/12/05 06:46:53;;;;;;;17.05;12.85;;;4.10;99.90;;;;;;5998319;23;20234;-77
2022/12/05 08:09:27;;;;;;;17.48;12.50;;;4.30;99.90;;;;;;5950348;23;20190;-81
2022/12/05 08:11:56;;;;;;;19.25;13.18;;;4.20;99.90;;;;;;5962112;23;20249;-79
2022/12/05 08:14:23;;;;;;;17.38;13.30;;;4.20;99.90;;;;;;5963844;23;20267;-80
2022/12/05 08:16:51;;;;;;;16.85;13.05;;;4.10;99.90;;;;;;5934519;23;20195;-79
2022/12/05 08:19:18;;;;;;;19.40;13.15;;;4.10;99.90;;;;;;5969645;23;20234;-78
2022/12/05 08:21:46;;;;;;;17.15;12.57;;;4.10;99.90;;;;;;5976697;23;20232;-79
2022/12/05 08:24:14;;;;;;;16.98;13.10;;;4.20;99.90;;;;;;5963004;23;20233;-79
2022/12/05 08:26:43;;;;;;;19.92;13.45;;;4.20;99.90;;;;;;5965270;23;20513;-79
2022/12/05 08:29:12;;;;;;;19.60;13.68;;;4.50;99.90;;;;;;5957375;23;21028;-79
2022/12/05 08:31:41;;;;;;;17.65;13.43;;;4.30;99.90;;;;;;5965141;23;20201;-79
2022/12/05 08:34:12;;;;;;;18.83;13.70;;;4.30;99.90;;;;;;5960479;23;20208;-80
2022/12/05 08:36:41;;;;;;;16.35;13.60;;;4.30;99.90;;;;;;5950747;23;20198;-79
2022/12/05 08:39:13;;;;;;;18.88;14.02;;;4.30;99.90;;;;;;5952388;23;20213;-80
2022/12/05 08:41:47;;;;;;;18.13;13.23;;;4.30;99.90;;;;;;5968526;23;20202;-79
2022/12/05 08:44:15;;;;;;;17.88;13.07;;;4.30;99.90;;;;;;5948583;23;20199;-79
2022/12/05 08:46:46;;;;;;;15.30;12.52;;;4.40;99.90;;;;;;5958658;23;20234;-79
2022/12/05 08:49:14;;;;;;;17.65;13.43;;;4.30;99.90;;;;;;5954705;23;20194;-79
2022/12/05 08:51:43;;;;;;;16.05;12.77;;;4.30;99.90;;;;;;5958506;23;20262;-78
2022/12/05 08:54:11;;;;;;;16.98;12.77;;;4.40;99.90;;;;;;5931251;24;20199;-79
2022/12/05 08:56:38;;;;;;;17.48;13.82;;;4.40;99.90;;;;;;5958977;23;20215;-79
2022/12/05 08:59:07;;;;;;;16.42;12.98;;;4.50;99.90;;;;;;5967708;23;20190;-79
2022/12/05 09:01:37;;;;;;;17.35;13.93;;;4.50;99.90;;;;;;5954543;23;20645;-79
2022/12/05 09:04:05;;;;;;;15.07;11.95;;;4.60;99.90;;;;;;5925019;23;20195;-79
2022/12/05 09:06:33;;;;;;;15.52;12.93;;;4.70;99.90;;;;;;5962363;23;20211;-80
2022/12/05 09:09:03;;;;;;;15.57;12.52;;;4.70;99.90;;;;;;5934970;23;20222;-79
2022/12/05 09:11:32;;;;;;;15.63;12.10;;;4.70;99.90;;;;;;5969927;23;20186;-79
2022/12/05 09:14:00;;;;;;;13.10;11.48;;;4.70;99.90;;;;;;5961765;23;20293;-79
2022/12/05 09:16:34;;;;;;;15.82;12.75;;;4.80;99.90;;;;;;5962839;23;20198;-79
2022/12/05 09:19:02;;;;;;;14.73;11.82;;;4.90;99.90;;;;;;5963391;23;20817;-79
2022/12/05 09:21:30;;;;;;;15.25;12.38;;;4.90;99.90;;;;;;5952232;23;20198;-79
2022/12/05 09:23:59;;;;;;;15.05;10.93;;;5.00;99.90;;;;;;5977266;23;20192;-79
2022/12/05 09:26:28;;;;;;;13.18;11.77;;;5.10;99.90;;;;;;5972771;23;20221;-78
2022/12/05 09:28:57;;;;;;;15.10;12.27;;;5.20;99.90;;;;;;5969128;23;20263;-79
2022/12/05 09:31:26;;;;;;;13.98;11.95;;;5.20;99.90;;;;;;5912952;23;20292;-79
2022/12/05 09:33:56;;;;;;;13.10;11.68;;;5.20;99.90;;;;;;5937691;23;20281;-79
2022/12/05 09:36:24;;;;;;;14.60;12.63;;;5.30;99.90;;;;;;5966940;23;20198;-78
2022/12/05 09:38:52;;;;;;;15.40;11.52;;;5.40;99.90;;;;;;5964183;23;20575;-78
2022/12/05 09:44:29;;;;;;;12.43;10.85;;;5.50;99.90;;;;;;5978918;23;20261;-79
2022/12/05 09:47:01;;;;;;;12.35;10.35;;;5.50;99.90;;;;;;5994008;23;20217;-79
2022/12/05 09:49:32;;;;;;;12.77;10.85;;;5.60;99.90;;;;;;6005852;23;20186;-78
2022/12/05 09:52:00;;;;;;;15.20;12.02;;;5.60;99.90;;;;;;5985028;23;20197;-79
2022/12/05 09:54:28;;;;;;;13.45;11.43;;;5.60;99.90;;;;;;5987594;23;20273;-78
2022/12/05 09:56:56;;;;;;;14.05;11.52;;;5.60;99.90;;;;;;5978704;23;20210;-78
2022/12/05 09:59:24;;;;;;;13.30;11.10;;;5.60;99.90;;;;;;5979137;23;20200;-79
2022/12/05 10:01:57;;;;;;;12.45;10.65;;;5.70;99.90;;;;;;5975094;23;20291;-79
2022/12/05 10:04:51;;;;;;;12.55;11.13;;;5.70;99.90;;;;;;5971165;23;20206;-78
2022/12/05 10:07:25;;;;;;;12.88;11.13;;;5.80;99.90;;;;;;5977087;23;20218;-78
2022/12/05 10:10:12;;;;;;;11.85;10.65;;;5.90;99.90;;;;;;5983442;23;20269;-79
2022/12/05 10:12:50;;;;;;;11.63;10.07;;;6.00;99.90;;;;;;5964391;23;20191;-79
2022/12/05 12:33:04;;;;;;;10.10;9.10;;;9.80;99.90;;;;;;5970022;23;20214;-79
2022/12/05 12:35:43;;;;;;;8.45;7.65;;;9.50;99.90;;;;;;5960715;23;20230;-78
2022/12/05 12:38:33;;;;;;;8.27;7.57;;;9.40;99.90;;;;;;5959067;23;20206;-78
2022/12/05 12:41:10;;;;;;;8.63;7.82;;;9.20;99.90;;;;;;5963238;23;20266;-78
2022/12/05 12:43:49;;;;;;;10.18;9.18;;;9.20;99.90;;;;;;5960491;23;20194;-78
2022/12/05 12:46:32;;;;;;;8.55;7.60;;;9.20;99.90;;;;;;5957156;23;20270;-78
2022/12/05 12:49:15;;;;;;;8.52;7.72;;;9.20;99.90;;;;;;5966237;23;20205;-79
2022/12/05 12:51:51;;;;;;;9.43;8.63;;;9.20;99.90;;;;;;5973392;23;20286;-79
2022/12/05 12:54:29;;;;;;;9.07;8.20;;;9.20;99.90;;;;;;5948719;24;20197;-80
2022/12/05 12:57:07;;;;;;;8.85;7.95;;;9.30;99.90;;;;;;5958741;23;20196;-79
2022/12/05 12:59:53;;;;;;;9.00;8.05;;;9.30;99.90;;;;;;5971453;23;20204;-79
2022/12/05 13:02:29;;;;;;;8.32;7.53;;;9.30;99.90;;;;;;5974924;23;20205;-79
2022/12/05 13:05:09;;;;;;;8.73;7.93;;;9.30;99.90;;;;;;5946120;24;20191;-79
2022/12/05 13:07:41;;;;;;;9.65;8.65;;;9.30;99.90;;;;;;5966366;23;20266;-79
2022/12/05 13:10:15;;;;;;;9.15;8.25;;;9.40;99.90;;;;;;5988335;23;20277;-79
2022/12/05 13:12:45;;;;;;;8.65;7.85;;;9.40;99.90;;;;;;5983962;23;20198;-80
2022/12/05 13:15:16;;;;;;;8.70;7.90;;;9.40;99.90;;;;;;5970464;23;20191;-78
2022/12/05 13:17:46;;;;;;;9.65;8.75;;;9.40;99.90;;;;;;5962032;23;20196;-79
2022/12/05 13:20:19;;;;;;;9.20;8.30;;;9.40;99.90;;;;;;5963688;23;20194;-79
2022/12/05 13:22:49;;;;;;;9.55;8.65;;;9.40;99.90;;;;;;5968307;23;20199;-79
2022/12/05 13:25:17;;;;;;;9.57;8.57;;;9.30;99.90;;;;;;5961689;23;20250;-78
2022/12/05 13:27:55;;;;;;;10.35;9.38;;;9.20;99.90;;;;;;5961824;23;20946;-78
2022/12/05 13:30:26;;;;;;;9.85;8.85;;;9.20;99.90;;;;;;5962069;23;20199;-77
2022/12/05 13:32:57;;;;;;;12.35;9.85;;;9.30;99.90;;;;;;5949722;23;20241;-77
2022/12/05 13:43:55;;;;;;;13.15;11.77;;;9.30;99.90;;;;;;5966976;23;20198;-79
2022/12/05 13:46:29;;;;;;;12.20;10.90;;;9.10;99.90;;;;;;5930219;23;20251;-79
2022/12/05 13:49:03;;;;;;;11.63;10.52;;;9.10;99.90;;;;;;5956530;23;20549;-79
2022/12/05 13:51:35;;;;;;;10.88;9.77;;;8.90;99.90;;;;;;5968233;23;20584;-79
2022/12/05 13:54:10;;;;;;;11.48;10.38;;;8.80;99.90;;;;;;5967269;23;20211;-81
2022/12/05 13:56:53;;;;;;;11.27;10.13;;;8.80;99.90;;;;;;5959128;23;20224;-79
2022/12/05 14:00:03;;;;;;;10.50;9.50;;;8.60;99.90;;;;;;5968565;23;20198;-79
2022/12/05 14:02:50;;;;;;;12.20;10.60;;;8.50;99.90;;;;;;5964652;23;20230;-79
2022/12/05 14:05:43;;;;;;;12.52;11.30;;;8.40;99.90;;;;;;5967522;24;20644;-79
2022/12/05 14:08:48;;;;;;;10.60;9.60;;;8.30;99.90;;;;;;5959584;23;20213;-79
2022/12/05 14:11:17;;;;;;;10.23;9.23;;;8.10;99.90;;;;;;5961479;23;20267;-79
2022/12/05 14:13:46;;;;;;;11.63;10.43;;;8.00;99.90;;;;;;5964402;23;20260;-79
2022/12/05 14:16:44;;;;;;;11.43;10.32;;;7.90;99.90;;;;;;5961683;23;20200;-78
2022/12/05 14:19:56;;;;;;;10.82;9.73;;;7.70;99.90;;;;;;5848101;24;20194;-78
2022/12/05 14:23:11;;;;;;;11.55;10.45;;;7.60;99.90;;;;;;5967572;23;21412;-79
2022/12/05 14:25:55;;;;;;;12.10;10.80;;;7.50;99.90;;;;;;5905843;24;20193;-79
2022/12/05 14:28:38;;;;;;;11.50;10.30;;;7.50;99.90;;;;;;5923070;24;20195;-79
2022/12/05 14:31:21;;;;;;;11.73;10.52;;;7.40;99.90;;;;;;5950118;23;20595;-79
2022/12/05 14:34:15;;;;;;;11.13;10.02;;;7.40;99.90;;;;;;5969264;23;20187;-79
2022/12/05 14:36:56;;;;;;;11.43;10.23;;;7.40;99.90;;;;;;5961641;23;20217;-78
2022/12/05 14:39:33;;;;;;;10.65;9.55;;;7.40;99.90;;;;;;5961258;23;20222;-78
2022/12/05 14:42:03;;;;;;;11.50;10.30;;;7.40;99.90;;;;;;5972031;23;20196;-76
2022/12/05 14:44:32;;;;;;;11.15;10.05;;;7.40;99.90;;;;;;5960686;23;20272;-79
2022/12/05 14:47:02;;;;;;;11.50;10.30;;;7.60;99.90;;;;;;5962101;23;20250;-78
2022/12/05 14:49:56;;;;;;;11.00;9.90;;;7.30;99.90;;;;;;5966702;23;20287;-79
2022/12/05 14:52:25;;;;;;;11.65;10.50;;;7.30;99.90;;;;;;5956262;23;20273;-77
2022/12/05 14:54:59;;;;;;;12.68;11.38;;;7.30;99.90;;;;;;5961639;23;20184;-79
2022/12/05 14:57:27;;;;;;;11.70;10.60;;;7.30;99.90;;;;;;5956697;23;20208;-78
2022/12/05 14:59:59;;;;;;;11.05;9.95;;;7.20;99.90;;;;;;5941858;24;20195;-78
2022/12/05 15:02:29;;;;;;;10.68;9.57;;;7.20;99.90;;;;;;5957763;23;20288;-78
2022/12/05 15:05:01;;;;;;;11.55;10.25;;;7.20;99.90;;;;;;5966166;23;20191;-78
2022/12/05 15:07:33;;;;;;;10.70;9.70;;;7.20;99.90;;;;;;5961450;24;20237;-77
2022/12/05 15:10:06;;;;;;;11.32;10.15;;;7.10;99.90;;;;;;5972345;24;20198;-78
2022/12/05 15:12:39;;;;;;;11.18;10.18;;;7.10;99.90;;;;;;5970330;23;20191;-78
2022/12/05 15:15:16;;;;;;;12.15;10.90;;;7.10;99.90;;;;;;5974364;23;20197;-78
2022/12/05 15:17:51;;;;;;;11.85;10.75;;;7.10;99.90;;;;;;5955621;23;20273;-78
2022/12/05 15:20:29;;;;;;;11.60;10.50;;;7.00;99.90;;;;;;5960007;23;20194;-77
2022/12/05 15:22:56;;;;;;;10.82;9.70;;;7.00;99.90;;;;;;5950149;23;20199;-80
2022/12/05 15:25:31;;;;;;;11.75;10.57;;;7.00;99.90;;;;;;5967285;23;20656;-78
2022/12/05 15:28:05;;;;;;;12.27;9.65;;;6.90;99.90;;;;;;5960739;23;20228;-78
2022/12/05 15:30:38;;;;;;;10.70;9.60;;;6.90;99.90;;;;;;5966861;23;20196;-78
2022/12/05 15:33:11;;;;;;;11.20;10.20;;;6.90;99.90;;;;;;5976787;23;20199;-78
2022/12/05 15:35:40;;;;;;;11.65;10.48;;;6.90;99.90;;;;;;5943139;24;20223;-78
2022/12/05 15:38:17;;;;;;;10.63;9.52;;;6.90;99.90;;;;;;5944797;24;20200;-79
2022/12/05 15:40:46;;;;;;;11.07;10.07;;;6.90;99.90;;;;;;5972107;23;20190;-78
2022/12/05 15:43:27;;;;;;;11.93;10.10;;;6.80;99.90;;;;;;5932001;23;21899;-78
2022/12/05 15:46:22;;;;;;;10.80;9.80;;;6.70;99.90;;;;;;5962841;23;20270;-77
2022/12/05 15:48:49;;;;;;;11.07;9.95;;;6.70;99.90;;;;;;5967350;23;20191;-77
2022/12/05 15:51:18;;;;;;;11.43;10.25;;;6.70;99.90;;;;;;5966672;23;20273;-77
2022/12/05 15:53:50;;;;;;;10.88;9.88;;;6.70;99.90;;;;;;5961223;23;20620;-77
2022/12/05 15:56:22;;;;;;;12.10;10.90;;;6.70;99.90;;;;;;5959003;23;20196;-77
2022/12/05 15:58:52;;;;;;;13.98;12.55;;;6.70;99.90;;;;;;5967742;24;20195;-77
2022/12/05 16:01:21;;;;;;;13.35;11.40;;;6.70;99.90;;;;;;5962578;23;20195;-77
2022/12/05 16:03:53;;;;;;;14.85;11.82;;;6.60;99.90;;;;;;5938644;23;20267;-77
2022/12/05 16:06:26;;;;;;;13.57;11.98;;;6.60;99.90;;;;;;5965576;23;20195;-78
2022/12/05 16:08:54;;;;;;;13.55;12.25;;;6.60;99.90;;;;;;5957633;23;20534;-77
2022/12/05 16:11:21;;;;;;;14.23;12.73;;;6.50;99.90;;;;;;5960387;23;20286;-77
2022/12/05 16:13:52;;;;;;;14.68;13.13;;;6.40;99.90;;;;;;5967392;23;20505;-77
2022/12/05 16:16:23;;;;;;;16.10;14.48;;;6.40;99.90;;;;;;5971218;23;20225;-77
2022/12/05 16:18:53;;;;;;;16.55;14.85;;;6.20;99.90;;;;;;5960841;23;20274;-77
2022/12/05 16:21:36;;;;;;;17.63;14.93;;;6.30;99.90;;;;;;5935363;24;20618;-77
2022/12/05 16:24:08;;;;;;;17.58;14.38;;;6.30;99.90;;;;;;5961596;23;20618;-78
2022/12/05 16:26:39;;;;;;;18.20;15.77;;;6.30;99.90;;;;;;5974309;23;20209;-77
2022/12/05 16:29:24;;;;;;;19.85;15.77;;;6.30;99.90;;;;;;5954741;23;20626;-77
2022/12/05 16:31:56;;;;;;;14.77;13.27;;;6.30;99.90;;;;;;5964644;23;20278;-78
2022/12/05 16:34:25;;;;;;;16.98;15.30;;;6.40;99.90;;;;;;5951750;23;20491;-78
2022/12/05 16:36:54;;;;;;;15.60;14.05;;;6.40;99.90;;;;;;5971233;24;20234;-78
2022/12/05 16:39:22;;;;;;;14.80;12.70;;;6.50;99.90;;;;;;5973658;23;20236;-77
2022/12/05 16:41:53;;;;;;;15.82;13.45;;;6.50;99.90;;;;;;5949844;23;20194;-77
2022/12/05 16:45:00;;;;;;;14.18;12.48;;;6.40;99.90;;;;;;5973834;23;20191;-77
2022/12/05 16:48:00;;;;;;;15.40;13.80;;;6.40;99.90;;;;;;5959426;23;20539;-77
2022/12/05 16:50:33;;;;;;;16.40;13.90;;;6.30;99.90;;;;;;5974662;23;20278;-78
2022/12/05 16:53:38;;;;;;;15.15;13.10;;;6.20;99.90;;;;;;5970135;23;20230;-78
2022/12/05 16:56:06;;;;;;;16.65;14.07;;;6.10;99.90;;;;;;5974138;23;20217;-77
2022/12/05 16:58:35;;;;;;;14.88;13.27;;;6.00;99.90;;;;;;5941937;24;20582;-77
2022/12/05 17:01:05;;;;;;;16.48;13.35;;;6.00;99.90;;;;;;5971105;23;20215;-77
2022/12/05 17:03:33;;;;;;;13.90;12.23;;;6.00;99.90;;;;;;5963244;23;20350;-77